Time;durP1;ratioP1;P1;durP2;ratioP2;P2;SDS_P1;SDS_P2;PMS_P1;PMS_P2;Temp;Humidity;BMP_temperature;BMP_pressure;BME280_temperature;BME280_humidity;BME280_pressure;Samples;Min_cycle;Max_cycle;Signal;HPM_P1;HPM_P2
2022/04/16 00:00:47;;;;;;;38.92;20.02;;;7.40;99.90;;;;;;4924474;29;20062;-70
2022/04/16 00:03:13;;;;;;;34.13;18.65;;;7.50;99.90;;;;;;4908750;29;20055;-70
2022/04/16 00:05:39;;;;;;;35.33;19.08;;;7.60;99.90;;;;;;4922576;29;20046;-69
2022/04/16 00:08:08;;;;;;;38.47;19.95;;;7.70;99.90;;;;;;4926221;29;20461;-69
2022/04/16 00:10:35;;;;;;;38.17;19.42;;;7.70;99.90;;;;;;4908504;29;20043;-71
2022/04/16 00:13:02;;;;;;;39.47;19.75;;;7.80;99.90;;;;;;4917415;29;20516;-70
2022/04/16 00:15:28;;;;;;;34.38;20.30;;;7.80;99.90;;;;;;4927452;29;20051;-70
2022/04/16 00:17:56;;;;;;;39.10;21.23;;;7.90;99.90;;;;;;4918247;29;20868;-70
2022/04/16 00:20:27;;;;;;;36.92;19.98;;;8.00;99.90;;;;;;4926153;29;20056;-71
2022/04/16 00:22:54;;;;;;;37.38;19.95;;;8.00;99.90;;;;;;4929480;29;20068;-69
2022/04/16 00:25:20;;;;;;;34.55;20.02;;;8.00;99.90;;;;;;4938182;29;20095;-70
2022/04/16 00:27:47;;;;;;;36.05;19.98;;;8.00;99.90;;;;;;4921864;29;20083;-69
2022/04/16 00:30:13;;;;;;;34.83;19.83;;;8.00;99.90;;;;;;4916823;29;20059;-69
2022/04/16 00:32:40;;;;;;;35.92;19.45;;;8.00;99.90;;;;;;4924916;29;20106;-71
2022/04/16 00:35:09;;;;;;;39.35;19.90;;;8.00;99.90;;;;;;4942401;28;20052;-71
2022/04/16 00:37:36;;;;;;;34.85;20.27;;;8.00;99.90;;;;;;4925368;29;20058;-69
2022/04/16 00:40:02;;;;;;;37.95;20.30;;;8.00;99.90;;;;;;4940297;29;20114;-70
2022/04/16 00:42:47;;;;;;;33.67;18.80;;;8.00;99.90;;;;;;4886635;29;20051;-71
2022/04/16 00:45:13;;;;;;;32.60;19.15;;;8.00;99.90;;;;;;4920357;29;20075;-69
2022/04/16 00:47:40;;;;;;;35.70;20.05;;;8.00;99.90;;;;;;4921995;29;20071;-69
2022/04/16 00:50:08;;;;;;;32.85;19.33;;;8.00;99.90;;;;;;4921995;29;20149;-69
2022/04/16 00:52:35;;;;;;;35.85;19.95;;;7.90;99.90;;;;;;4928670;29;20058;-68
2022/04/16 00:55:04;;;;;;;36.60;19.98;;;7.80;99.90;;;;;;4917809;29;20055;-70
2022/04/16 00:57:31;;;;;;;34.38;19.85;;;7.70;99.90;;;;;;4918089;29;20048;-69
2022/04/16 00:59:57;;;;;;;40.17;20.52;;;7.70;99.90;;;;;;4904911;29;20059;-69
2022/04/16 01:02:23;;;;;;;38.85;21.02;;;7.70;99.90;;;;;;4925700;29;20500;-69
2022/04/16 01:04:49;;;;;;;37.78;20.30;;;7.70;99.90;;;;;;4928042;29;20126;-70
2022/04/16 01:07:22;;;;;;;43.97;22.17;;;7.80;99.90;;;;;;4919239;29;20048;-69
2022/04/16 01:09:49;;;;;;;39.42;20.80;;;7.70;99.90;;;;;;4930182;29;20058;-69
2022/04/16 01:12:15;;;;;;;40.25;20.70;;;7.70;99.90;;;;;;4940833;29;20075;-70
2022/04/16 01:14:41;;;;;;;44.15;22.60;;;7.70;99.90;;;;;;4926814;29;20093;-69
2022/04/16 01:17:09;;;;;;;45.72;23.55;;;7.70;99.90;;;;;;4920108;29;20480;-69
2022/04/16 01:19:40;;;;;;;45.70;23.98;;;7.70;99.90;;;;;;4940392;29;20066;-69
2022/04/16 01:22:07;;;;;;;44.60;22.67;;;7.70;99.90;;;;;;4927378;29;20051;-70
2022/04/16 01:24:37;;;;;;;38.97;22.08;;;7.80;99.90;;;;;;4887768;29;20039;-69
2022/04/16 01:27:04;;;;;;;46.85;23.20;;;7.80;99.90;;;;;;4903714;29;20055;-70
2022/04/16 01:29:30;;;;;;;41.00;21.45;;;7.90;99.90;;;;;;4920381;29;20087;-70
2022/04/16 01:31:57;;;;;;;35.58;20.63;;;8.00;99.90;;;;;;4928358;29;20135;-71
2022/04/16 01:34:25;;;;;;;41.97;20.77;;;8.10;99.90;;;;;;4921910;29;20154;-69
2022/04/16 01:36:52;;;;;;;37.80;21.00;;;8.10;99.90;;;;;;4921444;29;20115;-70
2022/04/16 01:39:18;;;;;;;41.38;21.73;;;8.20;99.90;;;;;;4941900;28;20062;-69
2022/04/16 01:41:46;;;;;;;37.53;20.58;;;8.20;99.90;;;;;;4916288;29;20051;-69
2022/04/16 01:44:13;;;;;;;38.70;20.48;;;8.30;99.90;;;;;;4910084;29;20073;-70
2022/04/16 01:46:39;;;;;;;36.85;19.75;;;8.20;99.90;;;;;;4920202;29;20106;-71
2022/04/16 01:49:05;;;;;;;39.17;20.73;;;8.30;99.90;;;;;;4943077;28;20126;-69
2022/04/16 01:51:32;;;;;;;35.72;19.65;;;8.20;99.90;;;;;;4933351;29;20051;-69
2022/04/16 01:53:58;;;;;;;39.72;21.50;;;8.20;99.90;;;;;;4944106;28;20131;-69
2022/04/16 01:56:24;;;;;;;38.78;20.88;;;8.30;99.90;;;;;;4913485;29;20054;-69
2022/04/16 01:58:50;;;;;;;35.90;20.00;;;8.50;99.90;;;;;;4910602;29;20057;-69
2022/04/16 02:01:16;;;;;;;37.30;21.02;;;8.30;99.90;;;;;;4917194;29;20051;-69
2022/04/16 02:03:42;;;;;;;36.70;21.17;;;8.40;99.90;;;;;;4917797;29;20059;-70
2022/04/16 02:06:07;;;;;;;38.55;21.27;;;8.40;99.90;;;;;;4931460;29;20055;-71
2022/04/16 02:08:33;;;;;;;38.00;20.42;;;8.40;99.90;;;;;;4929161;29;20048;-70
2022/04/16 02:10:59;;;;;;;38.33;21.17;;;8.50;99.90;;;;;;4928301;29;20050;-71
2022/04/16 02:13:25;;;;;;;39.78;21.60;;;8.50;99.90;;;;;;4923003;29;20078;-70
2022/04/16 02:15:52;;;;;;;44.42;23.25;;;8.50;99.90;;;;;;4929104;29;20044;-71
2022/04/16 02:18:18;;;;;;;44.45;23.77;;;8.50;99.90;;;;;;4899417;29;20044;-71
2022/04/16 02:20:44;;;;;;;42.33;24.08;;;8.50;99.90;;;;;;4934460;29;20488;-70
2022/04/16 02:23:10;;;;;;;44.92;24.20;;;8.60;99.90;;;;;;4902972;29;20492;-69
2022/04/16 02:25:36;;;;;;;44.63;25.35;;;8.60;99.90;;;;;;4921751;29;20118;-71
2022/04/16 02:28:03;;;;;;;45.70;24.95;;;8.50;99.90;;;;;;4902981;29;20035;-70
2022/04/16 02:30:30;;;;;;;46.50;25.88;;;8.60;99.90;;;;;;4905470;29;20510;-71
2022/04/16 02:32:56;;;;;;;46.22;27.30;;;8.50;99.90;;;;;;4915632;29;20043;-70
2022/04/16 02:35:23;;;;;;;50.47;27.83;;;8.50;99.90;;;;;;4901557;29;20056;-69
2022/04/16 02:37:49;;;;;;;52.47;27.70;;;8.50;99.90;;;;;;4921031;29;20695;-70
2022/04/16 02:40:15;;;;;;;52.58;28.23;;;8.50;99.90;;;;;;4921068;29;20055;-69
2022/04/16 02:42:43;;;;;;;51.35;28.10;;;8.40;99.90;;;;;;4921299;29;20054;-71
2022/04/16 02:47:56;;;;;;;49.30;27.38;;;8.40;99.90;;;;;;4921642;29;20480;-69
2022/04/16 02:50:25;;;;;;;51.92;27.23;;;8.40;99.90;;;;;;4917413;29;20568;-70
2022/04/16 02:52:51;;;;;;;56.53;29.67;;;8.40;99.90;;;;;;4934785;29;20052;-69
2022/04/16 02:55:18;;;;;;;59.70;29.38;;;8.30;99.90;;;;;;4925341;29;20070;-69
2022/04/16 02:57:46;;;;;;;55.03;28.77;;;8.30;99.90;;;;;;4926583;29;20139;-69
2022/04/16 03:00:13;;;;;;;54.08;28.63;;;8.30;99.90;;;;;;4904552;29;20071;-71
2022/04/16 03:02:39;;;;;;;53.15;28.05;;;8.20;99.90;;;;;;4918994;29;20062;-71
2022/04/16 03:05:09;;;;;;;53.78;28.45;;;8.30;99.90;;;;;;4943860;29;20512;-69
2022/04/16 03:07:39;;;;;;;57.08;29.25;;;7.40;99.90;;;;;;4911311;29;20047;-68
2022/04/16 03:10:08;;;;;;;54.05;28.58;;;8.20;99.90;;;;;;4925718;29;20044;-69
2022/04/16 03:13:00;;;;;;;55.10;28.25;;;8.20;99.90;;;;;;4906995;29;20440;-69
2022/04/16 03:18:11;;;;;;;52.92;28.02;;;8.10;99.90;;;;;;4918498;29;20055;-68
2022/04/16 03:20:38;;;;;;;55.38;29.45;;;8.10;99.90;;;;;;4908718;29;20051;-70
2022/04/16 03:23:05;;;;;;;53.53;28.98;;;8.00;99.90;;;;;;4927514;29;20059;-69
2022/04/16 03:25:31;;;;;;;56.67;30.38;;;8.00;99.90;;;;;;4922918;29;20043;-70
2022/04/16 03:27:58;;;;;;;58.80;31.40;;;8.10;99.90;;;;;;4932031;29;20400;-71
2022/04/16 03:30:25;;;;;;;53.92;29.13;;;8.10;99.90;;;;;;4916706;29;20114;-69
2022/04/16 03:32:52;;;;;;;51.30;28.40;;;8.10;99.90;;;;;;4906129;29;20044;-71
2022/04/16 03:35:20;;;;;;;49.05;27.88;;;8.00;99.90;;;;;;4894833;29;20100;-69
2022/04/16 03:37:46;;;;;;;54.08;28.20;;;8.00;99.90;;;;;;4900125;29;20052;-69
2022/04/16 03:40:15;;;;;;;52.13;27.23;;;8.00;99.90;;;;;;4916136;29;20179;-70
2022/04/16 03:42:50;;;;;;;49.42;27.00;;;8.00;99.90;;;;;;4906887;29;20127;-70
2022/04/16 03:45:21;;;;;;;47.90;25.77;;;8.00;99.90;;;;;;4907347;29;20134;-71
2022/04/16 03:47:51;;;;;;;48.85;24.90;;;7.90;99.90;;;;;;4898710;29;20513;-69
2022/04/16 03:50:18;;;;;;;46.13;24.75;;;7.90;99.90;;;;;;4921106;29;20103;-68
2022/04/16 03:52:46;;;;;;;44.47;25.55;;;7.90;99.90;;;;;;4904395;29;20051;-71
2022/04/16 04:00:45;;;;;;;47.33;25.90;;;7.90;99.90;;;;;;4912220;29;20114;-69
2022/04/16 04:03:12;;;;;;;43.30;23.83;;;7.90;99.90;;;;;;4918742;29;20051;-69
2022/04/16 04:05:39;;;;;;;41.83;23.50;;;7.80;99.90;;;;;;4888602;29;20052;-70
2022/04/16 04:08:06;;;;;;;42.03;22.70;;;7.80;99.90;;;;;;4902795;29;20549;-69
2022/04/16 04:10:32;;;;;;;45.13;25.58;;;7.80;99.90;;;;;;4902910;29;20051;-69
2022/04/16 04:12:58;;;;;;;41.42;23.02;;;7.90;99.90;;;;;;4920639;29;20047;-70
2022/04/16 04:15:26;;;;;;;41.97;23.02;;;7.90;99.90;;;;;;4902032;29;20051;-69
2022/04/16 04:17:52;;;;;;;40.83;23.25;;;7.80;99.90;;;;;;4884711;29;20047;-70
2022/04/16 04:20:18;;;;;;;43.83;23.27;;;7.90;99.90;;;;;;4902828;29;20401;-69
2022/04/16 04:22:44;;;;;;;41.05;22.67;;;7.80;99.90;;;;;;4882754;29;20492;-70
2022/04/16 04:25:10;;;;;;;38.38;22.85;;;7.90;99.90;;;;;;4901950;29;20088;-70
2022/04/16 04:27:35;;;;;;;36.17;21.23;;;7.80;99.90;;;;;;4893271;29;20493;-70
2022/04/16 04:30:02;;;;;;;37.65;20.92;;;7.80;99.90;;;;;;4875920;29;20159;-68
2022/04/16 04:32:28;;;;;;;38.60;20.70;;;7.70;99.90;;;;;;4896874;29;20520;-69
2022/04/16 04:34:55;;;;;;;38.83;21.17;;;7.70;99.90;;;;;;4879534;29;20040;-71
2022/04/16 04:37:21;;;;;;;40.97;22.08;;;7.70;99.90;;;;;;4891076;29;20079;-69
2022/04/16 04:39:46;;;;;;;44.67;23.40;;;7.70;99.90;;;;;;4912959;29;20131;-69
2022/04/16 04:42:12;;;;;;;43.88;22.92;;;7.60;99.90;;;;;;4897326;29;20512;-69
2022/04/16 04:44:38;;;;;;;43.88;22.10;;;7.70;99.90;;;;;;4896031;29;20044;-69
2022/04/16 04:47:04;;;;;;;42.05;22.73;;;7.70;99.90;;;;;;4894349;29;20040;-71
2022/04/16 04:49:30;;;;;;;46.55;23.92;;;7.70;99.90;;;;;;4911131;29;20059;-70
2022/04/16 04:51:56;;;;;;;46.13;23.20;;;7.70;99.90;;;;;;4877646;29;20057;-69
2022/04/16 04:54:25;;;;;;;42.00;22.73;;;7.70;99.90;;;;;;4910806;29;20063;-70
2022/04/16 04:56:51;;;;;;;41.70;22.70;;;7.70;99.90;;;;;;4893111;29;20512;-69
2022/04/16 04:59:17;;;;;;;42.30;22.25;;;7.70;99.90;;;;;;4912982;29;20450;-69
2022/04/16 05:01:43;;;;;;;45.80;22.75;;;7.80;99.90;;;;;;4908040;29;20080;-69
2022/04/16 05:04:09;;;;;;;41.05;21.63;;;7.70;99.90;;;;;;4897063;29;20060;-69
2022/04/16 05:06:35;;;;;;;40.88;21.92;;;7.70;99.90;;;;;;4879563;29;20048;-71
2022/04/16 05:09:01;;;;;;;41.22;22.75;;;7.70;99.90;;;;;;4896503;29;20048;-69
2022/04/16 05:11:27;;;;;;;45.83;22.40;;;7.80;99.90;;;;;;4908939;29;20418;-69
2022/04/16 05:13:53;;;;;;;38.28;20.60;;;7.80;99.90;;;;;;4897212;29;20059;-69
2022/04/16 05:16:19;;;;;;;39.28;21.38;;;7.80;99.90;;;;;;4879287;29;20104;-69
2022/04/16 05:18:45;;;;;;;40.30;20.42;;;7.80;99.90;;;;;;4864050;29;20075;-69
2022/04/16 05:21:12;;;;;;;35.80;17.90;;;7.80;99.90;;;;;;4896528;29;20103;-69
2022/04/16 05:23:39;;;;;;;34.40;18.52;;;7.90;99.90;;;;;;4898112;29;20074;-70
2022/04/16 05:26:07;;;;;;;38.45;19.33;;;7.90;99.90;;;;;;4911672;29;20409;-69
2022/04/16 05:28:34;;;;;;;39.67;20.35;;;8.00;99.90;;;;;;4897666;29;20401;-69
2022/04/16 05:31:02;;;;;;;38.30;20.25;;;8.00;99.90;;;;;;4912910;29;20104;-69
2022/04/16 05:36:12;;;;;;;34.28;18.98;;;7.90;99.90;;;;;;4901355;29;20152;-70
2022/04/16 05:38:39;;;;;;;36.50;20.50;;;7.80;99.90;;;;;;4899103;29;20052;-69
2022/04/16 05:41:05;;;;;;;35.28;18.88;;;7.80;99.90;;;;;;4901251;29;20501;-69
2022/04/16 05:43:31;;;;;;;40.03;19.80;;;7.80;99.90;;;;;;4896447;29;20104;-70
2022/04/16 05:45:57;;;;;;;36.75;18.08;;;7.70;99.90;;;;;;4918024;29;20051;-69
2022/04/16 05:48:23;;;;;;;38.30;19.88;;;7.70;99.90;;;;;;4918859;29;20478;-70
2022/04/16 05:50:50;;;;;;;38.25;19.60;;;7.70;99.90;;;;;;4924169;29;20119;-69
2022/04/16 05:53:16;;;;;;;35.65;18.58;;;7.70;99.90;;;;;;4883708;29;20060;-71
2022/04/16 05:55:48;;;;;;;33.15;17.88;;;7.70;99.90;;;;;;4917608;29;20051;-69
2022/04/16 05:58:15;;;;;;;33.88;18.50;;;7.70;99.90;;;;;;4902572;29;20115;-70
2022/04/16 06:00:41;;;;;;;33.35;18.10;;;7.70;99.90;;;;;;4899703;29;20044;-69
2022/04/16 06:03:08;;;;;;;30.65;16.35;;;7.80;99.90;;;;;;4908003;29;20167;-70
2022/04/16 06:05:34;;;;;;;31.88;17.33;;;7.80;99.90;;;;;;4883117;29;20056;-67
2022/04/16 06:08:00;;;;;;;35.90;17.30;;;7.80;99.90;;;;;;4916132;29;20040;-67
2022/04/16 06:10:27;;;;;;;32.47;16.65;;;7.80;99.90;;;;;;4901301;29;20486;-67
2022/04/16 06:12:53;;;;;;;31.40;16.42;;;8.20;99.90;;;;;;4913895;29;20052;-71
2022/04/16 06:15:20;;;;;;;28.40;16.02;;;7.90;99.90;;;;;;4915476;29;20089;-68
2022/04/16 06:17:46;;;;;;;30.95;16.08;;;8.30;99.90;;;;;;4915386;29;20048;-70
2022/04/16 06:20:12;;;;;;;30.83;16.08;;;7.90;99.90;;;;;;4908924;29;20507;-68
2022/04/16 06:22:39;;;;;;;32.10;15.77;;;8.00;99.90;;;;;;4919215;29;20047;-67
2022/04/16 06:25:08;;;;;;;27.85;15.10;;;8.00;99.90;;;;;;4912707;29;20056;-67
2022/04/16 06:27:39;;;;;;;26.75;15.40;;;8.10;99.90;;;;;;4901200;29;20106;-67
2022/04/16 06:30:10;;;;;;;27.17;15.53;;;8.10;99.90;;;;;;4894494;29;20506;-67
2022/04/16 06:32:36;;;;;;;27.27;13.85;;;8.10;99.90;;;;;;4879071;29;20719;-71
2022/04/16 06:35:05;;;;;;;25.50;13.63;;;8.20;99.90;;;;;;4898285;29;20059;-67
2022/04/16 06:37:41;;;;;;;29.75;14.70;;;8.30;99.90;;;;;;4901588;29;20056;-67
2022/04/16 06:40:09;;;;;;;26.45;14.00;;;8.30;99.90;;;;;;4901180;29;20056;-67
2022/04/16 06:42:36;;;;;;;28.13;14.20;;;8.40;99.90;;;;;;4885840;29;20048;-68
2022/04/16 06:45:07;;;;;;;25.90;14.75;;;8.40;99.90;;;;;;4902255;29;20063;-68
2022/04/16 06:47:33;;;;;;;27.88;14.85;;;8.50;99.90;;;;;;4901586;29;20450;-67
2022/04/16 06:49:59;;;;;;;27.95;15.60;;;8.50;99.90;;;;;;4916335;29;20048;-68
2022/04/16 06:52:26;;;;;;;26.75;14.07;;;8.60;99.90;;;;;;4918301;29;20051;-68
2022/04/16 06:54:52;;;;;;;27.83;13.82;;;8.60;99.90;;;;;;4899991;29;20428;-67
2022/04/16 06:57:18;;;;;;;24.25;13.98;;;8.60;99.90;;;;;;4900435;29;20068;-68
2022/04/16 06:59:44;;;;;;;22.02;13.15;;;8.70;99.90;;;;;;4900420;29;20079;-71
2022/04/16 07:02:11;;;;;;;22.45;13.35;;;8.80;99.90;;;;;;4886514;29;20184;-70
2022/04/16 07:04:37;;;;;;;22.60;12.68;;;8.80;99.90;;;;;;4900981;29;20567;-69
2022/04/16 07:07:04;;;;;;;21.45;12.75;;;8.90;99.90;;;;;;4915835;29;20519;-69
2022/04/16 07:09:30;;;;;;;17.20;10.27;;;8.90;99.90;;;;;;4885771;29;20095;-68
2022/04/16 07:11:56;;;;;;;19.38;10.82;;;8.90;99.90;;;;;;4916997;29;20051;-70
2022/04/16 07:14:22;;;;;;;18.73;9.52;;;9.00;99.90;;;;;;4900567;29;20056;-68
2022/04/16 07:16:48;;;;;;;15.50;8.80;;;9.10;99.90;;;;;;4916757;29;20056;-70
2022/04/16 07:19:14;;;;;;;16.38;8.13;;;9.20;99.90;;;;;;4916857;29;20445;-69
2022/04/16 07:21:40;;;;;;;15.02;7.65;;;9.10;99.90;;;;;;4899984;29;20044;-69
2022/04/16 07:24:06;;;;;;;12.60;6.90;;;9.20;99.90;;;;;;4914693;29;20083;-68
2022/04/16 07:26:32;;;;;;;10.90;6.47;;;9.20;99.90;;;;;;4884453;29;20079;-69
2022/04/16 07:28:58;;;;;;;13.88;6.20;;;9.30;99.90;;;;;;4919703;29;20075;-68
2022/04/16 07:31:24;;;;;;;9.27;6.10;;;9.40;99.90;;;;;;4918968;29;20409;-68
2022/04/16 07:33:50;;;;;;;8.80;5.32;;;9.50;99.90;;;;;;4918586;29;20066;-69
2022/04/16 07:36:15;;;;;;;9.32;5.43;;;9.50;99.90;;;;;;4901491;29;20524;-69
2022/04/16 07:38:43;;;;;;;8.70;5.18;;;9.60;99.90;;;;;;4936565;29;20056;-68
2022/04/16 07:41:10;;;;;;;9.10;5.28;;;9.70;99.90;;;;;;4919212;29;20137;-68
2022/04/16 07:43:36;;;;;;;9.18;5.07;;;9.70;99.90;;;;;;4935974;29;20055;-68
2022/04/16 07:46:02;;;;;;;7.55;4.38;;;9.70;99.90;;;;;;4917785;29;20123;-68
2022/04/16 07:48:28;;;;;;;9.95;4.90;;;9.70;99.90;;;;;;4917464;29;20043;-68
2022/04/16 07:50:54;;;;;;;8.88;4.55;;;9.60;99.90;;;;;;4934073;29;20126;-68
2022/04/16 07:53:20;;;;;;;6.97;4.45;;;9.70;99.90;;;;;;4919717;29;20056;-68
2022/04/16 07:55:49;;;;;;;6.78;4.32;;;9.70;99.90;;;;;;4919316;29;20055;-68
2022/04/16 07:58:15;;;;;;;7.47;3.95;;;9.80;99.90;;;;;;4918431;29;20084;-68
2022/04/16 08:00:41;;;;;;;6.10;3.70;;;10.00;99.90;;;;;;4916033;29;20043;-68
2022/04/16 08:03:07;;;;;;;6.47;3.50;;;10.10;99.90;;;;;;4921520;29;20047;-69
2022/04/16 08:05:33;;;;;;;6.07;3.58;;;10.20;99.90;;;;;;4947023;29;20047;-69
2022/04/16 08:07:59;;;;;;;5.47;3.20;;;10.30;99.90;;;;;;4917350;29;20047;-69
2022/04/16 08:10:25;;;;;;;5.80;3.42;;;10.30;99.90;;;;;;4918577;29;20047;-68
2022/04/16 08:12:51;;;;;;;4.60;2.92;;;10.40;99.90;;;;;;4933771;29;20047;-68
2022/04/16 08:15:17;;;;;;;3.63;2.90;;;10.50;99.90;;;;;;4936404;29;20043;-68
2022/04/16 08:17:42;;;;;;;6.47;2.80;;;10.50;99.90;;;;;;4919159;29;20051;-68
2022/04/16 08:20:09;;;;;;;2.53;2.13;;;10.40;99.90;;;;;;4930927;29;20052;-69
2022/04/16 08:22:35;;;;;;;4.82;2.50;;;10.60;99.90;;;;;;4917903;29;20052;-68
2022/04/16 08:27:48;;;;;;;2.50;1.80;;;10.70;99.90;;;;;;4938119;29;20107;-68
2022/04/16 08:30:15;;;;;;;2.78;1.52;;;10.70;99.90;;;;;;4902823;29;20071;-68
2022/04/16 08:32:43;;;;;;;3.20;1.30;;;10.80;99.90;;;;;;4902659;29;20055;-68
2022/04/16 08:35:14;;;;;;;2.97;1.10;;;10.80;99.90;;;;;;4937469;29;20161;-68
2022/04/16 08:37:41;;;;;;;;;;;10.90;84.70;;;;;;4917002;29;20103;-69
2022/04/16 08:40:09;;;;;;;1.10;0.88;;;10.90;78.50;;;;;;4916744;29;19944;-69
2022/04/16 08:42:37;;;;;;;3.40;1.10;;;10.90;83.30;;;;;;4916476;29;20067;-68
2022/04/16 08:45:05;;;;;;;3.25;1.58;;;11.00;99.90;;;;;;4921225;29;20056;-68
2022/04/16 08:47:31;;;;;;;3.67;1.50;;;11.10;99.90;;;;;;4918189;29;20079;-68
2022/04/16 08:49:59;;;;;;;3.20;1.30;;;11.20;99.90;;;;;;4934460;29;20066;-68
2022/04/16 08:52:30;;;;;;;1.83;0.98;;;11.20;99.90;;;;;;4937675;29;20484;-68
2022/04/16 08:54:59;;;;;;;1.57;1.00;;;11.20;89.10;;;;;;4918098;29;20429;-68
2022/04/16 08:57:25;;;;;;;1.60;1.23;;;11.20;83.70;;;;;;4933862;29;20044;-68
2022/04/16 08:59:54;;;;;;;2.03;1.00;;;11.30;92.50;;;;;;4933095;29;20098;-68
2022/04/16 09:02:21;;;;;;;1.27;0.90;;;11.30;91.50;;;;;;4903631;29;20052;-68
2022/04/16 09:04:48;;;;;;;1.65;1.15;;;11.30;93.70;;;;;;4917591;29;20047;-69
2022/04/16 09:07:15;;;;;;;2.83;1.17;;;11.30;91.30;;;;;;4901652;29;20059;-67
2022/04/16 09:09:41;;;;;;;2.95;1.20;;;11.30;82.30;;;;;;4900887;29;20067;-68
2022/04/16 09:12:20;;;;;;;2.38;1.40;;;11.20;76.60;;;;;;4926407;29;20043;-68
2022/04/16 09:14:46;;;;;;;2.90;1.48;;;11.20;76.20;;;;;;4933282;29;20044;-70
2022/04/16 09:17:16;;;;;;;2.05;1.45;;;11.50;92.40;;;;;;4918386;29;20114;-71
2022/04/16 09:19:55;;;;;;;2.67;1.30;;;11.60;84.00;;;;;;4914435;29;20123;-68
2022/04/16 09:22:35;;;;;;;1.77;1.15;;;11.60;82.70;;;;;;4936193;29;20047;-68
2022/04/16 09:25:04;;;;;;;2.05;1.25;;;11.70;78.90;;;;;;4903200;29;20400;-68
2022/04/16 09:27:46;;;;;;;1.38;1.20;;;11.90;80.10;;;;;;4918012;29;20047;-68
2022/04/16 09:30:23;;;;;;;;;;;11.80;76.30;;;;;;4917241;29;20061;-68
2022/04/16 09:32:50;;;;;;;2.10;1.20;;;11.80;72.50;;;;;;4929142;29;19926;-68
2022/04/16 09:35:33;;;;;;;2.08;1.38;;;12.00;81.00;;;;;;4933038;29;20056;-68
2022/04/16 09:38:01;;;;;;;3.05;1.30;;;12.10;75.50;;;;;;4918806;29;20062;-70
2022/04/16 09:40:29;;;;;;;2.35;1.13;;;12.20;83.80;;;;;;4936878;29;20051;-68
2022/04/16 09:43:01;;;;;;;2.08;1.08;;;12.30;81.50;;;;;;4932307;29;20127;-68
2022/04/16 09:45:28;;;;;;;3.25;1.20;;;12.40;79.50;;;;;;4929053;29;20516;-70
2022/04/16 09:47:54;;;;;;;3.95;1.20;;;12.20;73.60;;;;;;4917382;29;20054;-68
2022/04/16 09:50:23;;;;;;;1.98;1.33;;;12.30;77.50;;;;;;4919986;29;20055;-68
2022/04/16 09:52:55;;;;;;;2.08;1.50;;;12.50;80.60;;;;;;4917395;29;20481;-69
2022/04/16 09:55:25;;;;;;;3.38;1.60;;;12.50;76.00;;;;;;4933478;29;20052;-68
2022/04/16 09:58:04;;;;;;;2.30;1.30;;;12.60;78.40;;;;;;4917887;29;20083;-68
2022/04/16 10:00:32;;;;;;;1.40;1.30;;;12.60;75.10;;;;;;4933222;29;20052;-68
2022/04/16 10:02:59;;;;;;;4.30;1.80;;;12.60;77.50;;;;;;4918544;29;20043;-71
2022/04/16 10:05:26;;;;;;;2.67;1.58;;;12.80;77.50;;;;;;4918733;29;20505;-68
2022/04/16 10:07:53;;;;;;;2.10;1.50;;;12.90;77.20;;;;;;4916502;29;20063;-69
2022/04/16 10:11:03;;;;;;;3.80;1.55;;;13.00;77.60;;;;;;4917632;29;20068;-69
2022/04/16 10:13:12;;;;;;;1.73;1.30;;;13.10;76.50;;;;;;4938035;29;20048;-68
2022/04/16 10:15:43;;;;;;;3.40;1.50;;;13.00;75.20;;;;;;4920846;29;20147;-70
2022/04/16 10:18:11;;;;;;;2.87;1.50;;;13.00;76.90;;;;;;4910594;29;20524;-69
2022/04/16 10:20:38;;;;;;;1.65;1.30;;;13.10;76.10;;;;;;4901614;29;20062;-68
2022/04/16 10:23:05;;;;;;;3.13;1.30;;;12.90;74.10;;;;;;4916650;29;20104;-69
2022/04/16 10:25:34;;;;;;;3.05;1.60;;;13.10;73.10;;;;;;4918380;29;20540;-68
2022/04/16 10:28:06;;;;;;;3.38;1.52;;;13.10;72.20;;;;;;4918206;29;20052;-69
2022/04/16 10:30:36;;;;;;;;;;;13.00;72.90;;;;;;4916892;29;20449;-68
2022/04/16 10:33:29;;;;;;;2.13;1.30;;;13.00;71.40;;;;;;4916999;29;20276;-68
2022/04/16 10:36:02;;;;;;;2.50;1.63;;;13.30;71.70;;;;;;4919541;29;20052;-69
2022/04/16 10:38:43;;;;;;;3.53;1.70;;;13.40;70.70;;;;;;4938292;29;20050;-69
2022/04/16 10:41:20;;;;;;;1.50;1.30;;;13.40;71.90;;;;;;4910905;29;20122;-69
2022/04/16 10:44:00;;;;;;;3.15;1.48;;;13.60;73.60;;;;;;4925031;29;20051;-68
2022/04/16 10:46:46;;;;;;;1.65;1.48;;;13.60;71.00;;;;;;4920460;29;20110;-69
2022/04/16 10:49:18;;;;;;;1.65;1.42;;;13.70;66.60;;;;;;4931467;29;20142;-68
2022/04/16 10:51:45;;;;;;;2.63;1.58;;;13.80;71.20;;;;;;4895803;29;20044;-69
2022/04/16 10:54:16;;;;;;;2.13;1.60;;;13.80;72.00;;;;;;4914327;29;20080;-69
2022/04/16 10:56:52;;;;;;;1.95;1.52;;;13.90;73.60;;;;;;4914870;29;20090;-71
2022/04/16 10:59:18;;;;;;;6.55;1.73;;;14.10;70.80;;;;;;4924277;29;20136;-68
2022/04/16 11:01:54;;;;;;;3.78;1.20;;;14.00;68.70;;;;;;4923119;29;20131;-69
2022/04/16 11:04:20;;;;;;;2.55;1.20;;;13.90;67.00;;;;;;4900585;29;20067;-68
2022/04/16 11:06:51;;;;;;;3.30;1.10;;;14.00;68.80;;;;;;4916764;29;20119;-75
2022/04/16 11:09:18;;;;;;;1.73;1.10;;;14.00;64.90;;;;;;4932073;29;20079;-68
2022/04/16 11:11:50;;;;;;;3.20;1.70;;;14.00;65.80;;;;;;4932686;29;20052;-68
2022/04/16 11:14:17;;;;;;;3.28;1.60;;;14.00;65.40;;;;;;4907136;29;20123;-69
2022/04/16 11:16:47;;;;;;;9.10;1.60;;;14.20;67.70;;;;;;4902092;29;20445;-68
2022/04/16 11:19:18;;;;;;;2.90;1.70;;;14.40;68.90;;;;;;4916082;29;20058;-69
2022/04/16 11:21:44;;;;;;;3.47;1.50;;;14.60;69.00;;;;;;4917722;29;20048;-68
2022/04/16 11:24:11;;;;;;;2.05;1.50;;;14.80;67.10;;;;;;4920090;29;21128;-68
2022/04/16 11:34:57;;;;;;;2.42;1.30;;;15.10;66.10;;;;;;4938610;29;20079;-68
2022/04/16 11:37:24;;;;;;;4.28;1.40;;;15.10;64.40;;;;;;4916458;29;20055;-68
2022/04/16 11:40:06;;;;;;;2.03;1.40;;;15.10;66.30;;;;;;4946244;29;20043;-71
2022/04/16 11:42:32;;;;;;;1.55;1.20;;;15.20;62.50;;;;;;4919809;29;21204;-70
2022/04/16 11:44:58;;;;;;;1.75;1.33;;;15.30;64.00;;;;;;4920394;29;20493;-70
2022/04/16 11:47:30;;;;;;;2.22;1.27;;;15.60;65.30;;;;;;4918750;29;20040;-69
2022/04/16 11:50:06;;;;;;;1.60;1.20;;;15.50;64.40;;;;;;4903976;29;20048;-68
2022/04/16 11:52:34;;;;;;;3.08;1.40;;;15.50;61.60;;;;;;4918354;29;20108;-69
2022/04/16 11:55:07;;;;;;;1.75;1.13;;;15.70;62.40;;;;;;4935019;29;20062;-69
2022/04/16 11:57:39;;;;;;;1.55;1.05;;;15.80;62.60;;;;;;4915754;29;20063;-68
2022/04/16 12:00:08;;;;;;;4.53;1.20;;;15.70;61.30;;;;;;4934010;29;20040;-69
2022/04/16 12:02:38;;;;;;;1.90;1.02;;;15.90;59.50;;;;;;4928781;29;20104;-68
2022/04/16 12:05:15;;;;;;;1.67;0.90;;;15.90;58.00;;;;;;4919471;29;20135;-68
2022/04/16 12:07:42;;;;;;;2.20;1.25;;;16.00;57.10;;;;;;4917816;29;20047;-68
2022/04/16 12:10:12;;;;;;;2.22;1.08;;;15.90;60.80;;;;;;4903399;29;20043;-69
2022/04/16 12:12:47;;;;;;;3.05;1.08;;;16.00;59.40;;;;;;4934487;29;20075;-68
2022/04/16 12:15:27;;;;;;;1.33;0.93;;;16.10;59.50;;;;;;4922702;29;20416;-69
2022/04/16 12:17:55;;;;;;;1.17;1.08;;;16.50;60.60;;;;;;4916138;29;20048;-69
2022/04/16 12:20:22;;;;;;;1.33;0.93;;;16.50;60.90;;;;;;4944791;29;20090;-69
2022/04/16 12:23:02;;;;;;;2.28;1.10;;;16.60;59.10;;;;;;4928094;29;20050;-68
2022/04/16 12:25:29;;;;;;;3.38;1.15;;;16.70;56.20;;;;;;4902290;29;20054;-68
2022/04/16 12:27:59;;;;;;;3.30;0.75;;;16.90;61.60;;;;;;4909467;29;20521;-68
2022/04/16 12:30:33;;;;;;;2.25;1.00;;;17.20;57.50;;;;;;4932261;29;20416;-67
2022/04/16 12:33:07;;;;;;;2.20;1.00;;;17.30;58.40;;;;;;4915656;29;20051;-71
2022/04/16 12:35:40;;;;;;;1.80;0.98;;;17.30;53.20;;;;;;4934731;29;20485;-70
2022/04/16 12:38:07;;;;;;;2.20;0.95;;;17.50;56.80;;;;;;4928921;29;20047;-73
2022/04/16 12:40:34;;;;;;;1.50;1.10;;;17.70;58.70;;;;;;4915069;29;20048;-68
2022/04/16 12:43:02;;;;;;;5.97;1.25;;;17.90;57.20;;;;;;4918263;29;20047;-70
2022/04/16 12:45:32;;;;;;;2.05;1.35;;;18.00;57.30;;;;;;4917825;29;20500;-68
2022/04/16 12:47:59;;;;;;;1.85;1.15;;;18.20;57.10;;;;;;4903410;29;20048;-68
2022/04/16 12:50:29;;;;;;;3.30;1.30;;;18.70;58.00;;;;;;4932097;29;20396;-69
2022/04/16 12:52:56;;;;;;;1.73;1.10;;;18.90;55.80;;;;;;4934872;29;20047;-68
2022/04/16 12:55:22;;;;;;;1.23;0.85;;;18.50;55.20;;;;;;4916651;29;20495;-68
2022/04/16 12:57:48;;;;;;;4.55;1.10;;;18.80;54.50;;;;;;4906794;29;20043;-68
2022/04/16 13:00:15;;;;;;;2.97;1.33;;;19.00;55.60;;;;;;4932715;29;20437;-69
2022/04/16 13:02:44;;;;;;;4.03;1.15;;;19.30;54.10;;;;;;4914116;29;20050;-68
2022/04/16 13:05:11;;;;;;;2.22;1.15;;;19.70;52.90;;;;;;4917079;29;20052;-68
2022/04/16 13:07:39;;;;;;;2.65;1.25;;;19.90;52.20;;;;;;4904752;29;20039;-68
2022/04/16 13:10:06;;;;;;;1.50;1.20;;;19.70;51.70;;;;;;4917192;29;20067;-69
2022/04/16 13:12:35;;;;;;;2.42;1.10;;;19.80;51.50;;;;;;4932500;29;20081;-67